sensor_id;sensor_type;location;lat;lon;timestamp;P1;durP1;ratioP1;P2;durP2;ratioP2
7965;SDS011;4028;43.272;26.932;2023-11-21T00:00:44;25.47;;;18.13;;
7965;SDS011;4028;43.272;26.932;2023-11-21T00:03:10;23.87;;;19.40;;
7965;SDS011;4028;43.272;26.932;2023-11-21T00:05:39;32.53;;;20.03;;
7965;SDS011;4028;43.272;26.932;2023-11-21T00:08:06;25.70;;;18.60;;
7965;SDS011;4028;43.272;26.932;2023-11-21T00:10:32;23.77;;;18.30;;
7965;SDS011;4028;43.272;26.932;2023-11-21T00:12:58;23.13;;;16.97;;
7965;SDS011;4028;43.272;26.932;2023-11-21T00:15:23;21.87;;;17.20;;
7965;SDS011;4028;43.272;26.932;2023-11-21T00:17:49;19.37;;;15.33;;
7965;SDS011;4028;43.272;26.932;2023-11-21T00:20:14;20.07;;;15.50;;
7965;SDS011;4028;43.272;26.932;2023-11-21T00:22:40;20.83;;;15.40;;
7965;SDS011;4028;43.272;26.932;2023-11-21T00:25:06;20.90;;;15.60;;
7965;SDS011;4028;43.272;26.932;2023-11-21T00:27:34;21.43;;;15.73;;
7965;SDS011;4028;43.272;26.932;2023-11-21T00:30:00;17.43;;;15.23;;
7965;SDS011;4028;43.272;26.932;2023-11-21T00:32:26;17.70;;;14.60;;
7965;SDS011;4028;43.272;26.932;2023-11-21T00:34:51;20.73;;;13.80;;
7965;SDS011;4028;43.272;26.932;2023-11-21T00:37:17;20.50;;;13.87;;
7965;SDS011;4028;43.272;26.932;2023-11-21T00:39:42;20.63;;;13.93;;
7965;SDS011;4028;43.272;26.932;2023-11-21T00:42:08;22.33;;;14.97;;
7965;SDS011;4028;43.272;26.932;2023-11-21T00:44:37;19.70;;;15.07;;
7965;SDS011;4028;43.272;26.932;2023-11-21T00:47:03;20.07;;;14.77;;
7965;SDS011;4028;43.272;26.932;2023-11-21T00:49:28;20.20;;;15.37;;
7965;SDS011;4028;43.272;26.932;2023-11-21T00:51:54;20.73;;;15.30;;
7965;SDS011;4028;43.272;26.932;2023-11-21T00:54:20;25.23;;;15.00;;
7965;SDS011;4028;43.272;26.932;2023-11-21T00:56:45;17.40;;;14.93;;
7965;SDS011;4028;43.272;26.932;2023-11-21T00:59:13;20.20;;;13.40;;
7965;SDS011;4028;43.272;26.932;2023-11-21T01:01:38;18.77;;;13.97;;
7965;SDS011;4028;43.272;26.932;2023-11-21T01:04:04;19.17;;;14.40;;
7965;SDS011;4028;43.272;26.932;2023-11-21T01:06:31;18.03;;;14.53;;
7965;SDS011;4028;43.272;26.932;2023-11-21T01:08:57;22.70;;;16.13;;
7965;SDS011;4028;43.272;26.932;2023-11-21T01:11:23;19.13;;;14.77;;
7965;SDS011;4028;43.272;26.932;2023-11-21T01:13:48;21.40;;;13.80;;
7965;SDS011;4028;43.272;26.932;2023-11-21T01:16:13;18.47;;;14.07;;
7965;SDS011;4028;43.272;26.932;2023-11-21T01:18:39;18.30;;;13.27;;
7965;SDS011;4028;43.272;26.932;2023-11-21T01:21:04;18.80;;;13.63;;
7965;SDS011;4028;43.272;26.932;2023-11-21T01:23:30;20.73;;;14.77;;
7965;SDS011;4028;43.272;26.932;2023-11-21T01:25:56;21.20;;;15.23;;
7965;SDS011;4028;43.272;26.932;2023-11-21T01:28:22;22.03;;;15.10;;
7965;SDS011;4028;43.272;26.932;2023-11-21T01:30:48;20.30;;;15.50;;
7965;SDS011;4028;43.272;26.932;2023-11-21T01:33:13;18.87;;;14.97;;
7965;SDS011;4028;43.272;26.932;2023-11-21T01:35:40;24.40;;;17.03;;
7965;SDS011;4028;43.272;26.932;2023-11-21T01:38:06;21.20;;;16.13;;
7965;SDS011;4028;43.272;26.932;2023-11-21T01:40:33;22.40;;;17.33;;
7965;SDS011;4028;43.272;26.932;2023-11-21T01:42:59;26.77;;;18.50;;
7965;SDS011;4028;43.272;26.932;2023-11-21T01:45:26;19.07;;;14.63;;
7965;SDS011;4028;43.272;26.932;2023-11-21T01:47:51;19.70;;;14.30;;
7965;SDS011;4028;43.272;26.932;2023-11-21T01:50:17;18.83;;;14.27;;
7965;SDS011;4028;43.272;26.932;2023-11-21T01:52:44;21.83;;;14.73;;
7965;SDS011;4028;43.272;26.932;2023-11-21T01:55:10;19.03;;;14.70;;
7965;SDS011;4028;43.272;26.932;2023-11-21T01:57:37;19.10;;;15.27;;
7965;SDS011;4028;43.272;26.932;2023-11-21T02:00:03;17.97;;;14.97;;
7965;SDS011;4028;43.272;26.932;2023-11-21T02:02:41;22.43;;;13.90;;
7965;SDS011;4028;43.272;26.932;2023-11-21T02:05:11;20.40;;;14.77;;
7965;SDS011;4028;43.272;26.932;2023-11-21T02:07:40;22.00;;;15.27;;
7965;SDS011;4028;43.272;26.932;2023-11-21T02:10:07;18.57;;;13.90;;
7965;SDS011;4028;43.272;26.932;2023-11-21T02:12:34;19.00;;;12.87;;
7965;SDS011;4028;43.272;26.932;2023-11-21T02:15:04;17.50;;;13.17;;
7965;SDS011;4028;43.272;26.932;2023-11-21T02:17:34;16.63;;;11.87;;
7965;SDS011;4028;43.272;26.932;2023-11-21T02:20:00;14.87;;;10.70;;
7965;SDS011;4028;43.272;26.932;2023-11-21T02:22:30;13.93;;;10.27;;
7965;SDS011;4028;43.272;26.932;2023-11-21T02:24:58;15.47;;;10.03;;
7965;SDS011;4028;43.272;26.932;2023-11-21T02:27:23;12.77;;;9.57;;
7965;SDS011;4028;43.272;26.932;2023-11-21T02:29:49;11.97;;;9.23;;
7965;SDS011;4028;43.272;26.932;2023-11-21T02:32:15;15.73;;;10.30;;
7965;SDS011;4028;43.272;26.932;2023-11-21T02:34:44;12.70;;;9.47;;
7965;SDS011;4028;43.272;26.932;2023-11-21T02:37:09;13.27;;;9.77;;
7965;SDS011;4028;43.272;26.932;2023-11-21T02:39:35;11.07;;;8.57;;
7965;SDS011;4028;43.272;26.932;2023-11-21T02:42:00;11.93;;;8.60;;
7965;SDS011;4028;43.272;26.932;2023-11-21T02:44:26;12.50;;;9.63;;
7965;SDS011;4028;43.272;26.932;2023-11-21T02:46:51;11.23;;;9.03;;
7965;SDS011;4028;43.272;26.932;2023-11-21T02:49:17;12.23;;;8.77;;
7965;SDS011;4028;43.272;26.932;2023-11-21T02:51:42;11.13;;;8.73;;
7965;SDS011;4028;43.272;26.932;2023-11-21T02:54:08;14.90;;;8.77;;
7965;SDS011;4028;43.272;26.932;2023-11-21T02:56:34;12.17;;;8.90;;
7965;SDS011;4028;43.272;26.932;2023-11-21T02:59:00;10.47;;;8.63;;
7965;SDS011;4028;43.272;26.932;2023-11-21T03:01:26;12.17;;;8.33;;
7965;SDS011;4028;43.272;26.932;2023-11-21T03:03:52;13.83;;;8.00;;
7965;SDS011;4028;43.272;26.932;2023-11-21T03:06:18;11.20;;;7.90;;
7965;SDS011;4028;43.272;26.932;2023-11-21T03:08:44;11.47;;;7.83;;
7965;SDS011;4028;43.272;26.932;2023-11-21T03:11:11;11.97;;;8.00;;
7965;SDS011;4028;43.272;26.932;2023-11-21T03:13:38;13.23;;;7.87;;
7965;SDS011;4028;43.272;26.932;2023-11-21T03:16:09;10.73;;;7.87;;
7965;SDS011;4028;43.272;26.932;2023-11-21T03:18:38;9.07;;;7.17;;
7965;SDS011;4028;43.272;26.932;2023-11-21T03:21:04;12.53;;;7.63;;
7965;SDS011;4028;43.272;26.932;2023-11-21T03:23:31;10.47;;;7.17;;
7965;SDS011;4028;43.272;26.932;2023-11-21T03:25:57;14.07;;;8.07;;
7965;SDS011;4028;43.272;26.932;2023-11-21T03:28:24;12.03;;;7.80;;
7965;SDS011;4028;43.272;26.932;2023-11-21T03:30:50;11.87;;;9.13;;
7965;SDS011;4028;43.272;26.932;2023-11-21T03:33:16;13.87;;;10.30;;
7965;SDS011;4028;43.272;26.932;2023-11-21T03:35:42;11.60;;;9.00;;
7965;SDS011;4028;43.272;26.932;2023-11-21T03:38:09;16.40;;;9.23;;
7965;SDS011;4028;43.272;26.932;2023-11-21T03:40:35;14.37;;;9.10;;
7965;SDS011;4028;43.272;26.932;2023-11-21T03:43:01;11.63;;;8.80;;
7965;SDS011;4028;43.272;26.932;2023-11-21T03:45:26;10.90;;;8.00;;
7965;SDS011;4028;43.272;26.932;2023-11-21T03:47:52;9.87;;;7.97;;
7965;SDS011;4028;43.272;26.932;2023-11-21T03:50:17;13.90;;;8.43;;
7965;SDS011;4028;43.272;26.932;2023-11-21T03:52:42;10.53;;;8.23;;
7965;SDS011;4028;43.272;26.932;2023-11-21T03:55:08;13.07;;;8.00;;
7965;SDS011;4028;43.272;26.932;2023-11-21T03:57:35;13.50;;;9.37;;
7965;SDS011;4028;43.272;26.932;2023-11-21T04:00:01;12.37;;;8.70;;
7965;SDS011;4028;43.272;26.932;2023-11-21T04:02:29;15.07;;;9.60;;
7965;SDS011;4028;43.272;26.932;2023-11-21T04:04:56;13.20;;;9.03;;
7965;SDS011;4028;43.272;26.932;2023-11-21T04:07:22;12.93;;;9.73;;
7965;SDS011;4028;43.272;26.932;2023-11-21T04:09:48;11.60;;;8.40;;
7965;SDS011;4028;43.272;26.932;2023-11-21T04:12:13;11.50;;;8.63;;
7965;SDS011;4028;43.272;26.932;2023-11-21T04:14:39;10.00;;;8.03;;
7965;SDS011;4028;43.272;26.932;2023-11-21T04:17:04;11.73;;;7.77;;
7965;SDS011;4028;43.272;26.932;2023-11-21T04:19:30;10.90;;;7.33;;
7965;SDS011;4028;43.272;26.932;2023-11-21T04:21:55;9.73;;;8.13;;
7965;SDS011;4028;43.272;26.932;2023-11-21T04:24:21;11.90;;;9.53;;
7965;SDS011;4028;43.272;26.932;2023-11-21T04:26:46;11.27;;;8.03;;
7965;SDS011;4028;43.272;26.932;2023-11-21T04:29:12;14.07;;;9.40;;
7965;SDS011;4028;43.272;26.932;2023-11-21T04:31:37;11.87;;;8.63;;
7965;SDS011;4028;43.272;26.932;2023-11-21T04:34:03;17.40;;;9.00;;
7965;SDS011;4028;43.272;26.932;2023-11-21T04:36:29;11.17;;;8.43;;
7965;SDS011;4028;43.272;26.932;2023-11-21T04:38:56;13.43;;;9.97;;
7965;SDS011;4028;43.272;26.932;2023-11-21T04:41:22;14.10;;;9.40;;
7965;SDS011;4028;43.272;26.932;2023-11-21T04:43:47;11.87;;;8.67;;
7965;SDS011;4028;43.272;26.932;2023-11-21T04:46:14;13.33;;;8.43;;
7965;SDS011;4028;43.272;26.932;2023-11-21T04:48:39;13.50;;;8.20;;
7965;SDS011;4028;43.272;26.932;2023-11-21T04:51:05;11.23;;;8.43;;
7965;SDS011;4028;43.272;26.932;2023-11-21T04:53:31;14.13;;;9.70;;
7965;SDS011;4028;43.272;26.932;2023-11-21T04:55:57;12.80;;;9.37;;
7965;SDS011;4028;43.272;26.932;2023-11-21T04:58:22;12.10;;;9.33;;
7965;SDS011;4028;43.272;26.932;2023-11-21T05:00:48;17.67;;;10.30;;
7965;SDS011;4028;43.272;26.932;2023-11-21T05:03:14;13.97;;;9.60;;
7965;SDS011;4028;43.272;26.932;2023-11-21T05:05:40;17.00;;;10.63;;
7965;SDS011;4028;43.272;26.932;2023-11-21T05:08:05;21.50;;;11.67;;
7965;SDS011;4028;43.272;26.932;2023-11-21T05:10:31;17.63;;;12.70;;
7965;SDS011;4028;43.272;26.932;2023-11-21T05:12:56;19.57;;;12.00;;
7965;SDS011;4028;43.272;26.932;2023-11-21T05:15:22;17.93;;;12.50;;
7965;SDS011;4028;43.272;26.932;2023-11-21T05:17:48;21.23;;;12.70;;
7965;SDS011;4028;43.272;26.932;2023-11-21T05:20:15;21.80;;;12.07;;
7965;SDS011;4028;43.272;26.932;2023-11-21T05:22:48;17.90;;;13.30;;
7965;SDS011;4028;43.272;26.932;2023-11-21T05:25:14;19.70;;;14.33;;
7965;SDS011;4028;43.272;26.932;2023-11-21T05:27:40;26.50;;;16.37;;
7965;SDS011;4028;43.272;26.932;2023-11-21T05:30:06;30.57;;;16.10;;
7965;SDS011;4028;43.272;26.932;2023-11-21T05:32:34;21.07;;;15.60;;
7965;SDS011;4028;43.272;26.932;2023-11-21T05:35:00;24.83;;;14.87;;
7965;SDS011;4028;43.272;26.932;2023-11-21T05:37:26;23.70;;;16.57;;
7965;SDS011;4028;43.272;26.932;2023-11-21T05:39:52;24.70;;;15.97;;
7965;SDS011;4028;43.272;26.932;2023-11-21T05:42:18;30.37;;;18.53;;
7965;SDS011;4028;43.272;26.932;2023-11-21T05:44:44;30.67;;;19.60;;
7965;SDS011;4028;43.272;26.932;2023-11-21T05:47:09;24.00;;;16.40;;
7965;SDS011;4028;43.272;26.932;2023-11-21T05:49:35;20.07;;;14.90;;
7965;SDS011;4028;43.272;26.932;2023-11-21T05:52:02;21.27;;;14.80;;
7965;SDS011;4028;43.272;26.932;2023-11-21T05:54:27;20.03;;;14.00;;
7965;SDS011;4028;43.272;26.932;2023-11-21T05:56:54;19.57;;;13.50;;
7965;SDS011;4028;43.272;26.932;2023-11-21T05:59:19;19.47;;;13.93;;
7965;SDS011;4028;43.272;26.932;2023-11-21T06:01:45;19.73;;;13.60;;
7965;SDS011;4028;43.272;26.932;2023-11-21T06:04:11;21.90;;;14.93;;
7965;SDS011;4028;43.272;26.932;2023-11-21T06:06:38;18.50;;;14.67;;
7965;SDS011;4028;43.272;26.932;2023-11-21T06:09:04;19.77;;;14.07;;
7965;SDS011;4028;43.272;26.932;2023-11-21T06:11:31;22.63;;;15.83;;
7965;SDS011;4028;43.272;26.932;2023-11-21T06:13:57;23.27;;;16.27;;
7965;SDS011;4028;43.272;26.932;2023-11-21T06:16:23;22.90;;;16.27;;
7965;SDS011;4028;43.272;26.932;2023-11-21T06:18:49;24.83;;;17.77;;
7965;SDS011;4028;43.272;26.932;2023-11-21T06:21:14;26.50;;;17.60;;
7965;SDS011;4028;43.272;26.932;2023-11-21T06:23:41;23.00;;;17.43;;
7965;SDS011;4028;43.272;26.932;2023-11-21T06:26:07;23.50;;;18.37;;
7965;SDS011;4028;43.272;26.932;2023-11-21T06:28:34;31.70;;;19.33;;
7965;SDS011;4028;43.272;26.932;2023-11-21T06:31:01;25.17;;;20.40;;
7965;SDS011;4028;43.272;26.932;2023-11-21T06:33:33;28.73;;;21.97;;
7965;SDS011;4028;43.272;26.932;2023-11-21T06:35:59;32.67;;;23.20;;
7965;SDS011;4028;43.272;26.932;2023-11-21T06:38:27;30.87;;;23.33;;
7965;SDS011;4028;43.272;26.932;2023-11-21T06:40:55;32.57;;;23.83;;
7965;SDS011;4028;43.272;26.932;2023-11-21T06:43:21;30.17;;;23.20;;
7965;SDS011;4028;43.272;26.932;2023-11-21T06:45:49;31.37;;;21.60;;
7965;SDS011;4028;43.272;26.932;2023-11-21T06:48:14;32.43;;;23.37;;
7965;SDS011;4028;43.272;26.932;2023-11-21T06:50:40;30.17;;;23.20;;
7965;SDS011;4028;43.272;26.932;2023-11-21T06:53:06;31.87;;;21.40;;
7965;SDS011;4028;43.272;26.932;2023-11-21T06:55:33;27.50;;;20.03;;
7965;SDS011;4028;43.272;26.932;2023-11-21T06:57:58;35.77;;;21.90;;
7965;SDS011;4028;43.272;26.932;2023-11-21T07:00:25;22.40;;;17.37;;
7965;SDS011;4028;43.272;26.932;2023-11-21T07:02:53;22.03;;;15.93;;
7965;SDS011;4028;43.272;26.932;2023-11-21T07:05:20;20.53;;;14.87;;
7965;SDS011;4028;43.272;26.932;2023-11-21T07:07:46;22.43;;;17.10;;
7965;SDS011;4028;43.272;26.932;2023-11-21T07:10:13;19.43;;;16.17;;
7965;SDS011;4028;43.272;26.932;2023-11-21T07:12:39;22.93;;;16.37;;
7965;SDS011;4028;43.272;26.932;2023-11-21T07:15:05;25.97;;;18.07;;
7965;SDS011;4028;43.272;26.932;2023-11-21T07:17:34;21.40;;;18.20;;
7965;SDS011;4028;43.272;26.932;2023-11-21T07:20:02;22.50;;;18.63;;
7965;SDS011;4028;43.272;26.932;2023-11-21T07:22:28;21.30;;;17.37;;
7965;SDS011;4028;43.272;26.932;2023-11-21T07:24:54;25.83;;;18.00;;
7965;SDS011;4028;43.272;26.932;2023-11-21T07:27:21;25.13;;;16.10;;
7965;SDS011;4028;43.272;26.932;2023-11-21T07:29:47;21.97;;;18.37;;
7965;SDS011;4028;43.272;26.932;2023-11-21T07:32:13;22.27;;;19.23;;
7965;SDS011;4028;43.272;26.932;2023-11-21T07:34:40;19.73;;;15.67;;
7965;SDS011;4028;43.272;26.932;2023-11-21T07:37:07;14.77;;;11.73;;
7965;SDS011;4028;43.272;26.932;2023-11-21T07:39:34;13.90;;;11.33;;
7965;SDS011;4028;43.272;26.932;2023-11-21T07:42:01;15.40;;;10.43;;
7965;SDS011;4028;43.272;26.932;2023-11-21T07:44:27;15.40;;;11.90;;
7965;SDS011;4028;43.272;26.932;2023-11-21T07:46:53;21.03;;;14.23;;
7965;SDS011;4028;43.272;26.932;2023-11-21T07:49:22;19.53;;;13.70;;
7965;SDS011;4028;43.272;26.932;2023-11-21T07:51:51;21.00;;;15.83;;
7965;SDS011;4028;43.272;26.932;2023-11-21T07:54:17;24.07;;;16.23;;
7965;SDS011;4028;43.272;26.932;2023-11-21T07:56:43;30.07;;;18.87;;
7965;SDS011;4028;43.272;26.932;2023-11-21T07:59:08;32.87;;;20.73;;
7965;SDS011;4028;43.272;26.932;2023-11-21T08:01:34;37.20;;;21.73;;
7965;SDS011;4028;43.272;26.932;2023-11-21T08:03:59;30.57;;;20.40;;
7965;SDS011;4028;43.272;26.932;2023-11-21T08:06:28;29.00;;;20.23;;
7965;SDS011;4028;43.272;26.932;2023-11-21T08:08:55;31.30;;;20.70;;
7965;SDS011;4028;43.272;26.932;2023-11-21T08:11:21;34.47;;;21.30;;
7965;SDS011;4028;43.272;26.932;2023-11-21T08:13:47;26.73;;;20.23;;
7965;SDS011;4028;43.272;26.932;2023-11-21T08:16:12;25.87;;;20.03;;
7965;SDS011;4028;43.272;26.932;2023-11-21T08:18:38;33.10;;;21.43;;
7965;SDS011;4028;43.272;26.932;2023-11-21T08:21:05;29.90;;;23.00;;
7965;SDS011;4028;43.272;26.932;2023-11-21T08:23:30;30.13;;;21.93;;
7965;SDS011;4028;43.272;26.932;2023-11-21T08:25:56;29.10;;;19.97;;
7965;SDS011;4028;43.272;26.932;2023-11-21T08:28:22;31.37;;;22.80;;
7965;SDS011;4028;43.272;26.932;2023-11-21T08:30:50;27.33;;;20.20;;
7965;SDS011;4028;43.272;26.932;2023-11-21T08:33:19;26.07;;;20.80;;
7965;SDS011;4028;43.272;26.932;2023-11-21T08:35:45;26.77;;;20.50;;
7965;SDS011;4028;43.272;26.932;2023-11-21T08:38:11;23.47;;;18.20;;
7965;SDS011;4028;43.272;26.932;2023-11-21T08:40:37;32.83;;;21.17;;
7965;SDS011;4028;43.272;26.932;2023-11-21T08:43:03;29.83;;;23.13;;
7965;SDS011;4028;43.272;26.932;2023-11-21T08:45:29;25.80;;;20.37;;
7965;SDS011;4028;43.272;26.932;2023-11-21T08:47:55;26.50;;;21.07;;
7965;SDS011;4028;43.272;26.932;2023-11-21T08:50:21;25.70;;;20.10;;
7965;SDS011;4028;43.272;26.932;2023-11-21T08:52:47;27.80;;;21.63;;
7965;SDS011;4028;43.272;26.932;2023-11-21T08:55:13;31.77;;;20.37;;
7965;SDS011;4028;43.272;26.932;2023-11-21T08:57:39;26.63;;;18.20;;
7965;SDS011;4028;43.272;26.932;2023-11-21T09:00:06;20.13;;;16.43;;
7965;SDS011;4028;43.272;26.932;2023-11-21T09:02:36;21.60;;;15.07;;
7965;SDS011;4028;43.272;26.932;2023-11-21T09:05:03;28.63;;;14.20;;
7965;SDS011;4028;43.272;26.932;2023-11-21T09:07:29;18.53;;;13.63;;
7965;SDS011;4028;43.272;26.932;2023-11-21T09:09:55;19.80;;;13.50;;
7965;SDS011;4028;43.272;26.932;2023-11-21T09:12:21;25.80;;;12.93;;
7965;SDS011;4028;43.272;26.932;2023-11-21T09:14:46;17.23;;;11.73;;
7965;SDS011;4028;43.272;26.932;2023-11-21T09:17:12;18.90;;;12.53;;
7965;SDS011;4028;43.272;26.932;2023-11-21T09:19:39;17.07;;;11.33;;
7965;SDS011;4028;43.272;26.932;2023-11-21T09:22:05;14.60;;;12.23;;
7965;SDS011;4028;43.272;26.932;2023-11-21T09:24:34;21.17;;;13.37;;
7965;SDS011;4028;43.272;26.932;2023-11-21T09:26:59;20.27;;;12.83;;
7965;SDS011;4028;43.272;26.932;2023-11-21T09:29:25;20.17;;;12.90;;
7965;SDS011;4028;43.272;26.932;2023-11-21T09:31:55;16.63;;;12.87;;
7965;SDS011;4028;43.272;26.932;2023-11-21T09:34:24;16.50;;;12.30;;
7965;SDS011;4028;43.272;26.932;2023-11-21T09:36:50;17.83;;;12.50;;
7965;SDS011;4028;43.272;26.932;2023-11-21T09:39:16;21.73;;;13.10;;
7965;SDS011;4028;43.272;26.932;2023-11-21T09:41:43;16.60;;;12.90;;
7965;SDS011;4028;43.272;26.932;2023-11-21T09:44:14;15.53;;;13.03;;
7965;SDS011;4028;43.272;26.932;2023-11-21T09:46:54;21.27;;;14.70;;
7965;SDS011;4028;43.272;26.932;2023-11-21T09:49:24;23.30;;;15.90;;
7965;SDS011;4028;43.272;26.932;2023-11-21T09:51:53;24.07;;;16.97;;
7965;SDS011;4028;43.272;26.932;2023-11-21T09:54:21;24.97;;;16.93;;
7965;SDS011;4028;43.272;26.932;2023-11-21T09:56:47;21.47;;;15.40;;
7965;SDS011;4028;43.272;26.932;2023-11-21T09:59:13;32.70;;;18.57;;
7965;SDS011;4028;43.272;26.932;2023-11-21T10:01:40;29.10;;;17.13;;
7965;SDS011;4028;43.272;26.932;2023-11-21T10:04:10;32.97;;;16.17;;
7965;SDS011;4028;43.272;26.932;2023-11-21T10:06:39;32.33;;;16.07;;
7965;SDS011;4028;43.272;26.932;2023-11-21T10:09:09;26.80;;;16.03;;
7965;SDS011;4028;43.272;26.932;2023-11-21T10:11:40;32.13;;;20.00;;
7965;SDS011;4028;43.272;26.932;2023-11-21T10:14:07;25.70;;;16.80;;
7965;SDS011;4028;43.272;26.932;2023-11-21T10:16:35;23.47;;;15.73;;
7965;SDS011;4028;43.272;26.932;2023-11-21T10:19:04;21.27;;;14.73;;
7965;SDS011;4028;43.272;26.932;2023-11-21T10:21:34;25.27;;;15.07;;
7965;SDS011;4028;43.272;26.932;2023-11-21T10:23:59;23.27;;;15.57;;
7965;SDS011;4028;43.272;26.932;2023-11-21T10:26:26;28.60;;;16.37;;
7965;SDS011;4028;43.272;26.932;2023-11-21T10:28:57;23.27;;;15.67;;
7965;SDS011;4028;43.272;26.932;2023-11-21T10:31:24;24.53;;;17.23;;
7965;SDS011;4028;43.272;26.932;2023-11-21T10:33:52;25.97;;;16.77;;
7965;SDS011;4028;43.272;26.932;2023-11-21T10:36:27;38.20;;;17.30;;
7965;SDS011;4028;43.272;26.932;2023-11-21T10:38:54;28.00;;;16.00;;
7965;SDS011;4028;43.272;26.932;2023-11-21T10:41:22;22.17;;;14.50;;
7965;SDS011;4028;43.272;26.932;2023-11-21T10:43:48;24.47;;;14.67;;
7965;SDS011;4028;43.272;26.932;2023-11-21T10:46:14;27.70;;;14.00;;
7965;SDS011;4028;43.272;26.932;2023-11-21T10:48:41;21.73;;;13.13;;
7965;SDS011;4028;43.272;26.932;2023-11-21T10:51:07;20.13;;;11.97;;
7965;SDS011;4028;43.272;26.932;2023-11-21T10:53:35;21.70;;;11.20;;
7965;SDS011;4028;43.272;26.932;2023-11-21T10:56:08;18.77;;;11.23;;
7965;SDS011;4028;43.272;26.932;2023-11-21T10:58:42;21.20;;;9.87;;
7965;SDS011;4028;43.272;26.932;2023-11-21T11:01:08;13.23;;;10.87;;
7965;SDS011;4028;43.272;26.932;2023-11-21T11:03:37;18.77;;;10.00;;
7965;SDS011;4028;43.272;26.932;2023-11-21T11:06:04;16.23;;;8.87;;
7965;SDS011;4028;43.272;26.932;2023-11-21T11:08:32;18.20;;;8.53;;
7965;SDS011;4028;43.272;26.932;2023-11-21T11:10:59;17.30;;;7.73;;
7965;SDS011;4028;43.272;26.932;2023-11-21T11:13:25;10.83;;;6.30;;
7965;SDS011;4028;43.272;26.932;2023-11-21T11:15:50;11.87;;;6.80;;
7965;SDS011;4028;43.272;26.932;2023-11-21T11:18:21;12.17;;;7.43;;
7965;SDS011;4028;43.272;26.932;2023-11-21T11:20:47;17.37;;;6.80;;
7965;SDS011;4028;43.272;26.932;2023-11-21T11:23:24;12.47;;;6.33;;
7965;SDS011;4028;43.272;26.932;2023-11-21T11:29:03;11.47;;;5.40;;
7965;SDS011;4028;43.272;26.932;2023-11-21T11:34:26;11.17;;;4.50;;
7965;SDS011;4028;43.272;26.932;2023-11-21T11:37:03;9.20;;;4.73;;
7965;SDS011;4028;43.272;26.932;2023-11-21T11:39:31;12.73;;;4.73;;
7965;SDS011;4028;43.272;26.932;2023-11-21T11:41:57;7.30;;;4.97;;
7965;SDS011;4028;43.272;26.932;2023-11-21T11:44:48;5.43;;;4.50;;
7965;SDS011;4028;43.272;26.932;2023-11-21T11:50:05;9.73;;;5.33;;
7965;SDS011;4028;43.272;26.932;2023-11-21T11:52:50;7.40;;;4.40;;
7965;SDS011;4028;43.272;26.932;2023-11-21T11:55:18;6.70;;;4.37;;
7965;SDS011;4028;43.272;26.932;2023-11-21T11:57:52;8.00;;;3.93;;
7965;SDS011;4028;43.272;26.932;2023-11-21T12:00:42;9.57;;;5.07;;
7965;SDS011;4028;43.272;26.932;2023-11-21T12:03:07;7.80;;;3.97;;
7965;SDS011;4028;43.272;26.932;2023-11-21T12:05:35;11.27;;;7.17;;
7965;SDS011;4028;43.272;26.932;2023-11-21T12:08:04;7.57;;;4.30;;
7965;SDS011;4028;43.272;26.932;2023-11-21T12:10:32;17.23;;;6.83;;
7965;SDS011;4028;43.272;26.932;2023-11-21T12:13:00;9.87;;;5.03;;
7965;SDS011;4028;43.272;26.932;2023-11-21T12:15:27;6.30;;;5.50;;
7965;SDS011;4028;43.272;26.932;2023-11-21T12:17:56;12.73;;;6.47;;
7965;SDS011;4028;43.272;26.932;2023-11-21T12:20:23;6.53;;;3.67;;
7965;SDS011;4028;43.272;26.932;2023-11-21T12:22:50;11.07;;;4.93;;
7965;SDS011;4028;43.272;26.932;2023-11-21T12:25:17;8.53;;;3.60;;
7965;SDS011;4028;43.272;26.932;2023-11-21T12:27:46;3.63;;;2.70;;
7965;SDS011;4028;43.272;26.932;2023-11-21T12:30:14;4.30;;;3.33;;
7965;SDS011;4028;43.272;26.932;2023-11-21T12:32:47;7.10;;;2.90;;
7965;SDS011;4028;43.272;26.932;2023-11-21T12:35:14;3.97;;;3.30;;
7965;SDS011;4028;43.272;26.932;2023-11-21T12:37:41;5.90;;;3.13;;
7965;SDS011;4028;43.272;26.932;2023-11-21T12:40:10;7.23;;;3.80;;
7965;SDS011;4028;43.272;26.932;2023-11-21T12:42:44;6.53;;;4.00;;
7965;SDS011;4028;43.272;26.932;2023-11-21T12:48:04;10.30;;;5.87;;
7965;SDS011;4028;43.272;26.932;2023-11-21T12:50:32;7.20;;;4.30;;
7965;SDS011;4028;43.272;26.932;2023-11-21T12:53:01;8.47;;;5.00;;
7965;SDS011;4028;43.272;26.932;2023-11-21T12:55:32;9.87;;;4.70;;
7965;SDS011;4028;43.272;26.932;2023-11-21T12:58:01;10.77;;;4.23;;
7965;SDS011;4028;43.272;26.932;2023-11-21T13:00:42;8.33;;;5.70;;
7965;SDS011;4028;43.272;26.932;2023-11-21T13:03:12;8.80;;;3.67;;
7965;SDS011;4028;43.272;26.932;2023-11-21T13:05:44;7.17;;;4.20;;
7965;SDS011;4028;43.272;26.932;2023-11-21T13:08:16;11.23;;;4.23;;
7965;SDS011;4028;43.272;26.932;2023-11-21T13:10:46;12.90;;;7.17;;
7965;SDS011;4028;43.272;26.932;2023-11-21T13:13:14;13.90;;;9.50;;
7965;SDS011;4028;43.272;26.932;2023-11-21T13:18:38;9.50;;;5.00;;
7965;SDS011;4028;43.272;26.932;2023-11-21T13:21:08;10.37;;;5.13;;
7965;SDS011;4028;43.272;26.932;2023-11-21T13:23:42;12.67;;;5.50;;
7965;SDS011;4028;43.272;26.932;2023-11-21T13:26:11;12.13;;;5.13;;
7965;SDS011;4028;43.272;26.932;2023-11-21T13:28:37;8.00;;;5.03;;
7965;SDS011;4028;43.272;26.932;2023-11-21T13:31:03;11.00;;;5.80;;
7965;SDS011;4028;43.272;26.932;2023-11-21T13:33:45;8.40;;;5.83;;
7965;SDS011;4028;43.272;26.932;2023-11-21T13:36:16;7.37;;;5.30;;
7965;SDS011;4028;43.272;26.932;2023-11-21T13:38:47;9.67;;;6.10;;
7965;SDS011;4028;43.272;26.932;2023-11-21T13:41:14;8.93;;;6.57;;
7965;SDS011;4028;43.272;26.932;2023-11-21T13:43:39;9.40;;;6.10;;
7965;SDS011;4028;43.272;26.932;2023-11-21T13:46:09;13.47;;;5.90;;
7965;SDS011;4028;43.272;26.932;2023-11-21T13:48:46;13.37;;;6.73;;
7965;SDS011;4028;43.272;26.932;2023-11-21T13:51:21;13.53;;;7.63;;
7965;SDS011;4028;43.272;26.932;2023-11-21T13:53:55;16.90;;;7.83;;
7965;SDS011;4028;43.272;26.932;2023-11-21T13:56:21;13.63;;;7.67;;
7965;SDS011;4028;43.272;26.932;2023-11-21T13:58:50;13.53;;;8.60;;
7965;SDS011;4028;43.272;26.932;2023-11-21T14:01:17;8.47;;;6.10;;
7965;SDS011;4028;43.272;26.932;2023-11-21T14:04:01;13.30;;;7.33;;
7965;SDS011;4028;43.272;26.932;2023-11-21T14:06:44;22.33;;;7.70;;
7965;SDS011;4028;43.272;26.932;2023-11-21T14:09:17;13.67;;;7.47;;
7965;SDS011;4028;43.272;26.932;2023-11-21T14:12:00;15.20;;;8.47;;
7965;SDS011;4028;43.272;26.932;2023-11-21T14:14:31;20.23;;;9.10;;
7965;SDS011;4028;43.272;26.932;2023-11-21T14:16:57;15.93;;;7.97;;
7965;SDS011;4028;43.272;26.932;2023-11-21T14:19:23;16.43;;;9.53;;
7965;SDS011;4028;43.272;26.932;2023-11-21T14:21:55;16.53;;;8.83;;
7965;SDS011;4028;43.272;26.932;2023-11-21T14:24:21;13.10;;;8.10;;
7965;SDS011;4028;43.272;26.932;2023-11-21T14:26:49;18.87;;;8.70;;
7965;SDS011;4028;43.272;26.932;2023-11-21T14:29:16;23.30;;;12.77;;
7965;SDS011;4028;43.272;26.932;2023-11-21T14:31:45;31.13;;;21.83;;
7965;SDS011;4028;43.272;26.932;2023-11-21T14:34:11;29.20;;;15.27;;
7965;SDS011;4028;43.272;26.932;2023-11-21T14:36:40;21.93;;;14.23;;
7965;SDS011;4028;43.272;26.932;2023-11-21T14:39:06;24.37;;;13.97;;
7965;SDS011;4028;43.272;26.932;2023-11-21T14:41:34;23.40;;;15.40;;
7965;SDS011;4028;43.272;26.932;2023-11-21T14:44:01;34.40;;;16.90;;
7965;SDS011;4028;43.272;26.932;2023-11-21T14:46:28;30.30;;;17.20;;
7965;SDS011;4028;43.272;26.932;2023-11-21T14:48:54;27.90;;;16.27;;
7965;SDS011;4028;43.272;26.932;2023-11-21T14:51:39;36.33;;;16.17;;
7965;SDS011;4028;43.272;26.932;2023-11-21T14:54:25;33.23;;;14.63;;
7965;SDS011;4028;43.272;26.932;2023-11-21T14:57:05;39.07;;;18.83;;